createdAt,value
2022-11-26T00:00:13.291Z,96.52
2022-11-26T00:02:47.305Z,95.96
2022-11-26T00:05:20.620Z,96.05
2022-11-26T00:07:56.331Z,96.43
2022-11-26T00:10:35.375Z,96.59
2022-11-26T00:13:16.684Z,96.65
2022-11-26T00:15:50.483Z,96.76
2022-11-26T00:18:26.432Z,96.01
2022-11-26T00:21:01.703Z,96.15
2022-11-26T00:23:34.441Z,95.97
2022-11-26T00:26:15.631Z,96.20
2022-11-26T00:28:52.444Z,96.47
2022-11-26T00:31:25.673Z,96.54
2022-11-26T00:33:58.485Z,96.74
2022-11-26T00:36:33.893Z,96.88
2022-11-26T00:39:08.930Z,96.93
2022-11-26T00:41:49.558Z,97.48
2022-11-26T00:44:24.285Z,97.42
2022-11-26T00:46:57.033Z,97.16
2022-11-26T00:49:29.817Z,97.06
2022-11-26T00:52:02.608Z,97.05
2022-11-26T00:54:35.575Z,97.95
2022-11-26T00:57:12.019Z,97.20
2022-11-26T00:59:44.792Z,97.65
2022-11-26T01:02:17.799Z,97.66
2022-11-26T01:04:50.672Z,97.88
2022-11-26T01:07:23.848Z,97.42
2022-11-26T01:09:56.678Z,97.68
2022-11-26T01:12:31.265Z,97.96
2022-11-26T01:15:04.495Z,98.28
2022-11-26T01:17:37.356Z,98.00
2022-11-26T01:20:32.044Z,98.26
2022-11-26T01:23:04.839Z,97.70
2022-11-26T01:25:37.624Z,97.59
2022-11-26T01:28:14.514Z,98.16
2022-11-26T01:30:47.559Z,98.55
2022-11-26T01:33:20.302Z,98.37
2022-11-26T01:35:53.243Z,97.89
2022-11-26T01:38:26.011Z,97.84
2022-11-26T01:41:12.503Z,98.21
2022-11-26T01:43:49.412Z,98.60
2022-11-26T01:46:23.306Z,98.44
2022-11-26T01:48:56.128Z,98.37
2022-11-26T01:51:30.121Z,97.64
2022-11-26T01:54:03.305Z,98.17
2022-11-26T01:56:40.041Z,98.63
2022-11-26T01:59:19.366Z,98.23
2022-11-26T02:01:53.394Z,98.42
2022-11-26T02:04:28.982Z,98.27
2022-11-26T02:07:02.158Z,98.64
2022-11-26T02:09:34.988Z,98.37
2022-11-26T02:12:07.853Z,98.78
2022-11-26T02:14:44.615Z,98.47
2022-11-26T02:17:26.321Z,98.77
2022-11-26T02:20:34.073Z,98.09
2022-11-26T02:23:35.286Z,98.03
2022-11-26T02:26:34.259Z,98.75
2022-11-26T02:29:20.986Z,98.31
2022-11-26T02:32:00.607Z,98.34
2022-11-26T02:34:40.458Z,97.97
2022-11-26T02:37:17.671Z,98.33
2022-11-26T02:39:51.952Z,98.00
2022-11-26T02:42:27.775Z,97.46
2022-11-26T02:45:05.330Z,97.92
2022-11-26T02:47:42.364Z,97.89
2022-11-26T02:50:23.399Z,97.75
2022-11-26T02:52:59.202Z,97.31
2022-11-26T02:55:36.604Z,97.44
2022-11-26T02:58:09.747Z,96.95
2022-11-26T03:00:44.144Z,97.24
2022-11-26T03:03:23.986Z,97.36
2022-11-26T03:06:00.020Z,97.54
2022-11-26T03:08:34.042Z,97.96
2022-11-26T03:11:07.236Z,97.60
2022-11-26T03:13:40.112Z,97.73
2022-11-26T03:16:12.944Z,97.65
2022-11-26T03:18:47.427Z,97.38
2022-11-26T03:21:20.221Z,98.13
2022-11-26T03:23:52.963Z,98.32
2022-11-26T03:26:25.731Z,98.41
2022-11-26T03:28:58.470Z,98.16
2022-11-26T03:31:31.295Z,98.36
2022-11-26T03:34:05.499Z,98.32
2022-11-26T03:36:38.305Z,98.10
2022-11-26T03:39:11.096Z,98.25
2022-11-26T03:41:44.333Z,98.28
2022-11-26T03:44:17.209Z,97.82
2022-11-26T03:46:50.160Z,97.85
2022-11-26T03:49:24.479Z,97.73
2022-11-26T03:51:57.395Z,97.58
2022-11-26T03:54:30.332Z,98.15
2022-11-26T03:57:03.102Z,98.17
2022-11-26T03:59:35.942Z,98.05
2022-11-26T04:02:08.740Z,98.34
2022-11-26T04:04:42.889Z,97.68
2022-11-26T04:07:15.821Z,97.91
2022-11-26T04:09:48.593Z,98.62
2022-11-26T04:12:21.341Z,98.71
2022-11-26T04:14:54.095Z,98.75
2022-11-26T04:17:27.207Z,99.19
2022-11-26T04:20:01.355Z,98.72
2022-11-26T04:22:34.212Z,98.73
2022-11-26T04:25:07.499Z,98.39
2022-11-26T04:27:40.308Z,98.61
2022-11-26T04:30:14.419Z,98.84
2022-11-26T04:32:47.189Z,98.88
2022-11-26T04:35:21.677Z,98.77
2022-11-26T04:37:54.414Z,99.19
2022-11-26T04:40:27.602Z,99.22
2022-11-26T04:43:00.327Z,99.05
2022-11-26T04:45:33.130Z,99.06
2022-11-26T04:48:07.310Z,99.42
2022-11-26T04:50:41.509Z,99.16
2022-11-26T04:53:14.299Z,98.99
2022-11-26T04:55:49.081Z,99.25
2022-11-26T04:58:22.606Z,99.20
2022-11-26T05:00:55.414Z,99.34
2022-11-26T05:03:28.271Z,99.58
2022-11-26T05:06:02.468Z,99.71
2022-11-26T05:08:35.300Z,99.63
2022-11-26T05:11:08.037Z,99.63
2022-11-26T05:13:40.782Z,99.45
2022-11-26T05:16:13.531Z,99.58
2022-11-26T05:18:46.357Z,99.63
2022-11-26T05:21:20.493Z,99.73
2022-11-26T05:23:53.500Z,99.76
2022-11-26T05:26:26.239Z,100.00
2022-11-26T05:28:59.006Z,99.71
2022-11-26T05:31:31.931Z,99.78
2022-11-26T05:34:04.783Z,100.00
2022-11-26T05:36:38.904Z,100.00
2022-11-26T05:39:11.722Z,99.78
2022-11-26T05:41:44.509Z,99.90
2022-11-26T05:44:17.537Z,99.95
2022-11-26T05:46:50.416Z,99.85
2022-11-26T05:49:23.202Z,99.93
2022-11-26T05:51:57.280Z,100.00
2022-11-26T05:54:30.090Z,100.00
2022-11-26T05:57:02.860Z,100.00
2022-11-26T05:59:35.625Z,100.00
2022-11-26T06:02:08.578Z,100.00
2022-11-26T06:04:41.727Z,100.00
2022-11-26T06:07:16.023Z,100.00
2022-11-26T06:09:48.842Z,100.00
2022-11-26T06:12:21.631Z,100.00
2022-11-26T06:14:54.395Z,100.00
2022-11-26T06:17:27.218Z,100.00
2022-11-26T06:19:59.983Z,100.00
2022-11-26T06:22:37.470Z,100.00
2022-11-26T06:25:14.228Z,100.00
2022-11-26T06:27:47.013Z,100.00
2022-11-26T06:30:21.444Z,100.00
2022-11-26T06:32:54.247Z,100.00
2022-11-26T06:35:27.209Z,99.84
2022-11-26T06:38:01.368Z,100.00
2022-11-26T06:40:34.162Z,100.00
2022-11-26T06:43:06.928Z,99.86
2022-11-26T06:45:39.785Z,99.72
2022-11-26T06:48:12.564Z,99.13
2022-11-26T06:50:45.325Z,98.58
2022-11-26T06:53:20.394Z,98.83
2022-11-26T06:55:53.109Z,98.21
2022-11-26T06:58:26.062Z,98.21
2022-11-26T07:00:58.865Z,98.54
2022-11-26T07:03:33.525Z,98.25
2022-11-26T07:06:06.441Z,97.89
2022-11-26T07:08:40.515Z,98.52
2022-11-26T07:11:14.009Z,99.11
2022-11-26T07:13:46.955Z,99.18
2022-11-26T07:16:20.028Z,98.80
2022-11-26T07:19:00.858Z,98.05
2022-11-26T07:21:35.345Z,97.14
2022-11-26T07:24:09.589Z,96.86
2022-11-26T07:26:42.353Z,97.24
2022-11-26T07:29:16.000Z,98.09
2022-11-26T07:31:48.765Z,98.80
2022-11-26T07:34:21.559Z,99.20
2022-11-26T07:36:58.024Z,99.22
2022-11-26T07:39:32.885Z,99.10
2022-11-26T07:42:05.782Z,99.07
2022-11-26T07:44:38.940Z,98.85
2022-11-26T07:47:11.834Z,98.70
2022-11-26T07:49:44.546Z,99.50
2022-11-26T07:52:17.303Z,99.48
2022-11-26T07:54:51.360Z,99.97
2022-11-26T07:57:25.110Z,99.95
2022-11-26T07:59:57.864Z,100.00
2022-11-26T08:02:30.614Z,100.00
2022-11-26T08:05:03.554Z,100.00
2022-11-26T08:07:36.960Z,100.00
2022-11-26T08:10:12.751Z,100.00
2022-11-26T08:12:45.576Z,99.92
2022-11-26T08:15:18.768Z,99.85
2022-11-26T08:17:55.475Z,100.00
2022-11-26T08:20:29.290Z,100.00
2022-11-26T08:23:02.174Z,100.00
2022-11-26T08:25:37.157Z,100.00
2022-11-26T08:28:18.014Z,100.00
2022-11-26T08:30:50.901Z,100.00
2022-11-26T08:33:23.997Z,100.00
2022-11-26T08:36:06.807Z,100.00
2022-11-26T08:38:41.308Z,100.00
2022-11-26T08:41:15.801Z,100.00
2022-11-26T08:44:06.065Z,99.77
2022-11-26T08:46:41.453Z,98.97
2022-11-26T08:49:16.777Z,99.84
2022-11-26T08:51:49.638Z,99.35
2022-11-26T08:54:22.726Z,99.65
2022-11-26T08:56:56.856Z,99.16
2022-11-26T08:59:29.974Z,98.84
2022-11-26T09:02:02.917Z,99.80
2022-11-26T09:04:38.220Z,98.92
2022-11-26T09:07:11.480Z,99.50
2022-11-26T09:09:44.776Z,98.82
2022-11-26T09:12:19.342Z,98.70
2022-11-26T09:14:52.151Z,98.64
2022-11-26T09:17:26.512Z,97.86
2022-11-26T09:19:59.287Z,97.91
2022-11-26T09:22:32.976Z,97.97
2022-11-26T09:25:07.295Z,98.43
2022-11-26T09:27:41.676Z,97.73
2022-11-26T09:30:16.111Z,97.04
2022-11-26T09:32:49.068Z,97.54
2022-11-26T09:35:21.880Z,97.01
2022-11-26T09:37:55.698Z,97.31
2022-11-26T09:40:39.363Z,96.88
2022-11-26T09:43:24.354Z,95.79
2022-11-26T09:46:00.757Z,95.86
2022-11-26T09:48:34.858Z,95.31
2022-11-26T09:51:14.404Z,94.92
2022-11-26T09:53:53.435Z,94.19
2022-11-26T09:56:28.673Z,94.27
2022-11-26T09:59:07.930Z,93.82
2022-11-26T10:01:42.013Z,94.05
2022-11-26T10:04:23.046Z,93.44
2022-11-26T10:07:04.317Z,93.19
2022-11-26T10:09:50.469Z,92.78
2022-11-26T10:12:38.223Z,93.02
2022-11-26T10:15:33.047Z,93.11
2022-11-26T10:18:17.592Z,92.36
2022-11-26T10:21:11.083Z,91.57
2022-11-26T10:23:47.374Z,91.84
2022-11-26T10:26:24.734Z,91.51
2022-11-26T10:29:09.301Z,90.41
2022-11-26T10:31:46.692Z,90.92
2022-11-26T10:34:22.759Z,90.54
2022-11-26T10:36:55.631Z,90.21
2022-11-26T10:39:28.794Z,91.60
2022-11-26T10:42:05.918Z,90.15
2022-11-26T10:44:41.404Z,90.03
2022-11-26T10:47:29.943Z,89.20
2022-11-26T10:50:40.034Z,89.56
2022-11-26T10:53:20.715Z,89.21
2022-11-26T10:55:56.894Z,89.54
2022-11-26T10:58:32.967Z,88.84
2022-11-26T11:01:07.913Z,88.88
2022-11-26T11:04:08.781Z,87.91
2022-11-26T11:06:44.328Z,88.70
2022-11-26T11:09:32.493Z,87.86
2022-11-26T11:12:25.722Z,87.43
2022-11-26T11:15:19.993Z,87.00
2022-11-26T11:18:00.902Z,86.74
2022-11-26T11:20:38.156Z,86.28
2022-11-26T11:23:34.780Z,86.11
2022-11-26T11:26:20.469Z,85.91
2022-11-26T11:28:55.571Z,85.50
2022-11-26T11:31:28.766Z,83.69
2022-11-26T11:34:14.494Z,84.90
2022-11-26T11:37:00.144Z,84.62
2022-11-26T11:39:36.482Z,84.87
2022-11-26T11:42:24.501Z,83.86
2022-11-26T11:44:58.691Z,84.83
2022-11-26T11:47:37.122Z,84.22
2022-11-26T11:50:19.168Z,83.81
2022-11-26T11:53:07.585Z,83.44
2022-11-26T11:56:02.104Z,84.16
2022-11-26T11:58:57.194Z,82.55
2022-11-26T12:01:48.255Z,81.95
2022-11-26T12:04:26.518Z,82.32
2022-11-26T12:07:24.878Z,83.18
2022-11-26T12:10:06.559Z,82.50
2022-11-26T12:12:44.436Z,82.01
2022-11-26T12:15:24.445Z,81.33
2022-11-26T12:18:01.566Z,81.76
2022-11-26T12:20:40.990Z,81.89
2022-11-26T12:23:28.668Z,81.18
2022-11-26T12:26:11.803Z,80.22
2022-11-26T12:28:52.659Z,80.62
2022-11-26T12:31:32.057Z,81.56
2022-11-26T12:34:12.978Z,81.31
2022-11-26T12:36:51.038Z,81.18
2022-11-26T12:39:35.530Z,81.27
2022-11-26T12:42:18.258Z,79.69
2022-11-26T12:44:52.993Z,80.40
2022-11-26T12:47:31.368Z,80.36
2022-11-26T12:50:12.849Z,80.96
2022-11-26T12:52:53.957Z,80.49
2022-11-26T12:55:32.714Z,80.21
2022-11-26T12:58:15.045Z,79.50
2022-11-26T13:00:49.534Z,79.55
2022-11-26T13:03:28.653Z,79.86
2022-11-26T13:06:07.160Z,79.56
2022-11-26T13:08:49.269Z,79.65
2022-11-26T13:11:35.802Z,79.92
2022-11-26T13:14:18.559Z,80.37
2022-11-26T13:16:58.860Z,79.21
2022-11-26T13:19:36.799Z,79.21
2022-11-26T13:22:33.750Z,79.50
2022-11-26T13:25:34.100Z,79.75
2022-11-26T13:28:18.271Z,79.20
2022-11-26T13:31:07.336Z,80.21
2022-11-26T13:33:54.629Z,79.80
2022-11-26T13:36:45.312Z,79.60
2022-11-26T13:39:40.644Z,80.83
2022-11-26T13:42:33.046Z,80.05
2022-11-26T13:45:24.678Z,79.83
2022-11-26T13:48:05.708Z,80.04
2022-11-26T13:50:45.749Z,79.49
2022-11-26T13:53:26.933Z,80.02
2022-11-26T13:56:02.940Z,79.42
2022-11-26T13:58:42.804Z,79.14
2022-11-26T14:01:30.328Z,78.51
2022-11-26T14:04:07.922Z,80.04
2022-11-26T14:07:19.989Z,79.66
2022-11-26T14:09:55.396Z,78.34
2022-11-26T14:13:01.378Z,78.42
2022-11-26T14:15:52.731Z,77.69
2022-11-26T14:19:00.555Z,77.56
2022-11-26T14:22:03.595Z,76.50
2022-11-26T14:24:59.264Z,76.83
2022-11-26T14:27:33.411Z,76.81
2022-11-26T14:30:27.381Z,77.24
2022-11-26T14:33:11.350Z,76.89
2022-11-26T14:35:55.203Z,77.74
2022-11-26T14:38:31.503Z,77.21
2022-11-26T14:41:04.326Z,76.96
2022-11-26T14:43:37.091Z,77.82
2022-11-26T14:46:14.728Z,77.90
2022-11-26T14:48:49.515Z,77.78
2022-11-26T14:51:23.956Z,78.31
2022-11-26T14:54:00.833Z,78.16
2022-11-26T14:56:41.755Z,78.43
2022-11-26T14:59:19.284Z,78.25
2022-11-26T15:01:52.165Z,79.61
2022-11-26T15:04:27.597Z,79.32
2022-11-26T15:07:00.433Z,78.79
2022-11-26T15:09:34.584Z,79.41
2022-11-26T15:12:14.303Z,78.67
2022-11-26T15:14:54.633Z,78.66
2022-11-26T15:17:30.459Z,79.16
2022-11-26T15:20:08.803Z,78.90
2022-11-26T15:22:45.199Z,79.30
2022-11-26T15:25:21.825Z,79.00
2022-11-26T15:27:58.921Z,79.66
2022-11-26T15:30:34.171Z,79.57
2022-11-26T15:33:15.055Z,80.15
2022-11-26T15:35:56.595Z,80.77
2022-11-26T15:38:30.403Z,79.84
2022-11-26T15:41:08.864Z,80.12
2022-11-26T15:43:44.830Z,80.19
2022-11-26T15:46:21.310Z,80.02
2022-11-26T15:48:58.894Z,80.28
2022-11-26T15:51:36.134Z,79.87
2022-11-26T15:54:21.601Z,80.03
2022-11-26T15:56:58.053Z,79.69
2022-11-26T15:59:39.801Z,79.81
2022-11-26T16:02:19.350Z,79.67
2022-11-26T16:04:54.463Z,79.50
2022-11-26T16:07:29.185Z,80.52
2022-11-26T16:10:12.776Z,80.63
2022-11-26T16:13:06.869Z,80.82
2022-11-26T16:15:48.465Z,80.23
2022-11-26T16:18:24.824Z,81.14
2022-11-26T16:21:06.385Z,80.63
2022-11-26T16:23:39.461Z,81.56
2022-11-26T16:26:19.289Z,81.55
2022-11-26T16:28:54.594Z,82.44
2022-11-26T16:31:27.474Z,81.73
2022-11-26T16:34:01.098Z,81.82
2022-11-26T16:36:36.190Z,81.41
2022-11-26T16:39:11.118Z,82.10
2022-11-26T16:41:43.935Z,82.44
2022-11-26T16:44:18.141Z,82.27
2022-11-26T16:46:52.298Z,83.04
2022-11-26T16:49:26.477Z,82.64
2022-11-26T16:51:59.564Z,81.94
2022-11-26T16:54:32.353Z,83.16
2022-11-26T16:57:05.284Z,82.72
2022-11-26T16:59:40.214Z,82.70
2022-11-26T17:02:16.140Z,82.08
2022-11-26T17:04:49.456Z,83.12
2022-11-26T17:07:24.225Z,83.25
2022-11-26T17:09:58.132Z,82.97
2022-11-26T17:12:31.007Z,82.72
2022-11-26T17:15:06.148Z,83.12
2022-11-26T17:17:39.279Z,83.30
2022-11-26T17:20:17.688Z,83.37
2022-11-26T17:22:50.534Z,83.05
2022-11-26T17:25:23.511Z,82.82
2022-11-26T17:27:56.374Z,83.21
2022-11-26T17:30:30.840Z,83.14
2022-11-26T17:33:03.653Z,83.12
2022-11-26T17:35:36.919Z,83.38
2022-11-26T17:38:19.233Z,83.54
2022-11-26T17:40:52.075Z,82.89
2022-11-26T17:43:24.968Z,83.09
2022-11-26T17:46:00.497Z,82.65
2022-11-26T17:48:33.726Z,82.95
2022-11-26T17:51:08.817Z,82.96
2022-11-26T17:53:41.793Z,83.03
2022-11-26T17:56:24.052Z,83.32
2022-11-26T17:58:59.615Z,83.46
2022-11-26T18:01:34.059Z,83.31
2022-11-26T18:04:07.524Z,83.59
2022-11-26T18:06:49.807Z,83.89
2022-11-26T18:09:22.694Z,83.67
2022-11-26T18:11:57.088Z,84.18
2022-11-26T18:14:30.111Z,83.95
2022-11-26T18:17:05.167Z,83.61
2022-11-26T18:19:43.370Z,83.90
2022-11-26T18:22:18.727Z,84.04
2022-11-26T18:24:56.550Z,84.49
2022-11-26T18:27:30.988Z,83.98
2022-11-26T18:30:04.024Z,83.43
2022-11-26T18:32:38.932Z,83.22
2022-11-26T18:35:12.207Z,83.50
2022-11-26T18:37:45.263Z,84.31
2022-11-26T18:40:18.607Z,84.43
2022-11-26T18:42:52.823Z,84.47
2022-11-26T18:45:25.622Z,83.87
2022-11-26T18:47:59.773Z,84.74
2022-11-26T18:50:32.687Z,84.64
2022-11-26T18:53:05.724Z,83.74
2022-11-26T18:55:40.628Z,84.26
2022-11-26T18:58:14.268Z,84.62
2022-11-26T19:00:48.400Z,84.85
2022-11-26T19:03:22.531Z,85.17
2022-11-26T19:05:55.912Z,85.28
2022-11-26T19:08:28.782Z,85.86
2022-11-26T19:11:08.554Z,86.05
2022-11-26T19:13:42.054Z,86.49
2022-11-26T19:16:17.910Z,86.33
2022-11-26T19:18:52.651Z,85.74
2022-11-26T19:21:28.210Z,85.44
2022-11-26T19:24:03.707Z,85.74
2022-11-26T19:26:37.340Z,85.49
2022-11-26T19:29:13.290Z,85.59
2022-11-26T19:31:46.121Z,86.15
2022-11-26T19:34:20.272Z,86.01
2022-11-26T19:36:57.556Z,87.28
2022-11-26T19:39:30.595Z,87.17
2022-11-26T19:42:03.364Z,86.58
2022-11-26T19:44:36.702Z,86.69
2022-11-26T19:47:09.579Z,85.75
2022-11-26T19:49:43.720Z,85.96
2022-11-26T19:52:16.587Z,86.09
2022-11-26T19:54:49.530Z,87.30
2022-11-26T19:57:22.306Z,86.82
2022-11-26T19:59:55.232Z,87.03
2022-11-26T20:02:28.010Z,87.86
2022-11-26T20:05:02.912Z,88.06
2022-11-26T20:07:35.788Z,87.46
2022-11-26T20:10:09.849Z,87.60
2022-11-26T20:12:42.814Z,88.19
2022-11-26T20:15:15.836Z,87.48
2022-11-26T20:17:48.703Z,86.41
2022-11-26T20:20:22.840Z,87.74
2022-11-26T20:22:55.875Z,86.22
2022-11-26T20:25:29.900Z,87.44
2022-11-26T20:28:03.419Z,86.54
2022-11-26T20:30:38.717Z,86.13
2022-11-26T20:33:11.722Z,87.36
2022-11-26T20:35:46.774Z,88.84
2022-11-26T20:38:19.578Z,90.16
2022-11-26T20:40:53.206Z,89.31
2022-11-26T20:43:25.924Z,89.67
2022-11-26T20:46:02.377Z,89.79
2022-11-26T20:48:36.719Z,88.59
2022-11-26T20:51:13.934Z,90.00
2022-11-26T20:53:49.554Z,90.48
2022-11-26T20:56:23.442Z,90.04
2022-11-26T20:58:56.630Z,88.76
2022-11-26T21:01:31.410Z,89.46
2022-11-26T21:04:04.245Z,89.38
2022-11-26T21:06:38.378Z,89.60
2022-11-26T21:09:12.545Z,90.26
2022-11-26T21:11:45.367Z,89.14
2022-11-26T21:14:18.290Z,89.94
2022-11-26T21:16:52.350Z,90.20
2022-11-26T21:19:25.363Z,89.14
2022-11-26T21:21:59.484Z,89.21
2022-11-26T21:24:32.580Z,89.37
2022-11-26T21:27:05.444Z,89.20
2022-11-26T21:29:38.537Z,88.45
2022-11-26T21:32:11.523Z,88.32
2022-11-26T21:34:44.422Z,88.87
2022-11-26T21:37:18.795Z,89.16
2022-11-26T21:39:51.615Z,88.43
2022-11-26T21:42:24.397Z,88.57
2022-11-26T21:44:57.450Z,88.73
2022-11-26T21:47:30.441Z,87.63
2022-11-26T21:50:03.211Z,88.22
2022-11-26T21:52:37.335Z,88.85
2022-11-26T21:55:10.631Z,88.32
2022-11-26T21:57:43.594Z,87.76
2022-11-26T22:00:18.014Z,87.94
2022-11-26T22:02:50.943Z,87.81
2022-11-26T22:05:23.870Z,88.71
2022-11-26T22:07:58.387Z,87.95
2022-11-26T22:10:35.998Z,88.40
2022-11-26T22:13:09.030Z,88.03
2022-11-26T22:15:44.175Z,87.96
2022-11-26T22:18:16.956Z,89.35
2022-11-26T22:20:53.474Z,88.70
2022-11-26T22:23:27.576Z,88.37
2022-11-26T22:26:00.344Z,88.93
2022-11-26T22:28:34.987Z,88.76
2022-11-26T22:31:13.040Z,89.18
2022-11-26T22:33:46.236Z,88.09
2022-11-26T22:36:18.984Z,87.97
2022-11-26T22:38:53.338Z,88.75
2022-11-26T22:41:26.606Z,88.39
2022-11-26T22:44:00.013Z,89.45
2022-11-26T22:46:34.069Z,89.80
2022-11-26T22:49:08.372Z,89.53
2022-11-26T22:51:41.651Z,90.19
2022-11-26T22:54:17.895Z,88.71
2022-11-26T22:56:50.673Z,89.41
2022-11-26T22:59:23.416Z,89.17
2022-11-26T23:01:56.799Z,88.30
2022-11-26T23:04:29.722Z,87.13
2022-11-26T23:07:02.478Z,89.33
2022-11-26T23:09:36.803Z,89.91
2022-11-26T23:12:09.756Z,89.94
2022-11-26T23:14:42.633Z,90.75
2022-11-26T23:17:15.374Z,90.29
2022-11-26T23:19:48.147Z,90.14
2022-11-26T23:22:21.229Z,91.09
2022-11-26T23:24:55.639Z,89.98
2022-11-26T23:27:28.423Z,90.59
2022-11-26T23:30:01.228Z,90.53
2022-11-26T23:32:34.082Z,90.75
2022-11-26T23:35:07.531Z,91.54
2022-11-26T23:37:41.170Z,91.48
2022-11-26T23:40:15.961Z,91.67
2022-11-26T23:42:48.722Z,91.71
2022-11-26T23:45:21.852Z,90.83
2022-11-26T23:47:54.788Z,91.61
2022-11-26T23:50:27.582Z,91.23
2022-11-26T23:53:00.383Z,91.51
2022-11-26T23:55:35.703Z,91.81
2022-11-26T23:58:08.482Z,91.54
